createdAt,value
2017-10-05T00:01:29.389Z,50.60
2017-10-05T00:03:58.072Z,50.70
2017-10-05T00:06:26.369Z,50.70
2017-10-05T00:08:55.474Z,50.80
2017-10-05T00:11:23.749Z,50.80
2017-10-05T00:13:52.058Z,50.80
2017-10-05T00:16:20.349Z,50.80
2017-10-05T00:18:48.621Z,50.90
2017-10-05T00:21:16.887Z,51.00
2017-10-05T00:23:45.164Z,51.00
2017-10-05T00:26:13.404Z,50.90
2017-10-05T00:28:41.725Z,50.90
2017-10-05T00:31:09.999Z,51.00
2017-10-05T00:33:38.273Z,50.90
2017-10-05T00:36:06.535Z,50.90
2017-10-05T00:38:35.019Z,50.80
2017-10-05T00:41:03.341Z,50.70
2017-10-05T00:43:31.637Z,50.70
2017-10-05T00:45:59.889Z,50.80
2017-10-05T00:48:28.144Z,50.70
2017-10-05T00:50:56.430Z,50.70
2017-10-05T00:53:24.742Z,50.70
2017-10-05T00:55:53.039Z,50.70
2017-10-05T00:58:21.289Z,50.70
2017-10-05T01:00:49.539Z,50.80
2017-10-05T01:03:17.848Z,50.90
2017-10-05T01:05:46.097Z,51.60
2017-10-05T01:08:15.118Z,51.20
2017-10-05T01:10:43.767Z,51.10
2017-10-05T01:13:12.802Z,51.30
2017-10-05T01:15:41.096Z,51.30
2017-10-05T01:20:43.922Z,51.40
2017-10-05T01:23:12.192Z,51.00
2017-10-05T01:25:40.495Z,51.40
2017-10-05T01:28:09.544Z,51.40
2017-10-05T01:30:37.763Z,51.30
2017-10-05T01:33:06.759Z,51.90
2017-10-05T01:35:35.732Z,51.40
2017-10-05T01:38:03.926Z,51.40
2017-10-05T01:40:32.899Z,51.40
2017-10-05T01:43:01.091Z,51.40
2017-10-05T01:45:30.058Z,51.30
2017-10-05T01:47:58.343Z,51.30
2017-10-05T01:50:26.518Z,51.40
2017-10-05T01:52:54.703Z,51.20
2017-10-05T01:55:23.695Z,51.40
2017-10-05T01:57:52.655Z,51.40
2017-10-05T02:00:20.884Z,51.40
2017-10-05T02:02:49.082Z,51.50
2017-10-05T02:05:17.291Z,51.50
2017-10-05T02:07:46.632Z,51.40
2017-10-05T02:10:14.830Z,52.10
2017-10-05T02:12:43.046Z,51.60
2017-10-05T02:15:12.039Z,51.50
2017-10-05T02:17:41.023Z,51.50
2017-10-05T02:20:09.587Z,51.40
2017-10-05T02:22:37.859Z,51.50
2017-10-05T02:25:06.054Z,51.40
2017-10-05T02:27:35.066Z,51.50
2017-10-05T02:30:04.039Z,51.50
2017-10-05T02:32:33.043Z,51.50
2017-10-05T02:35:02.004Z,51.60
2017-10-05T02:37:30.276Z,51.50
2017-10-05T02:39:58.476Z,51.60
2017-10-05T02:42:26.676Z,52.30
2017-10-05T02:44:54.998Z,51.70
2017-10-05T02:47:23.253Z,51.60
2017-10-05T02:49:51.485Z,51.70
2017-10-05T02:52:20.535Z,51.60
2017-10-05T02:54:48.745Z,51.60
2017-10-05T02:57:17.715Z,51.70
2017-10-05T02:59:45.914Z,51.50
2017-10-05T03:02:14.956Z,51.60
2017-10-05T03:04:43.151Z,51.60
2017-10-05T03:07:11.364Z,51.70
2017-10-05T03:09:40.344Z,51.60
2017-10-05T03:12:08.540Z,51.60
2017-10-05T03:14:36.741Z,51.60
2017-10-05T03:17:05.692Z,51.60
2017-10-05T03:19:33.900Z,51.50
2017-10-05T03:22:02.084Z,51.50
2017-10-05T03:24:30.275Z,51.50
2017-10-05T03:26:58.490Z,51.50
2017-10-05T03:29:27.443Z,51.60
2017-10-05T03:31:55.692Z,51.60
2017-10-05T03:34:23.897Z,51.60
2017-10-05T03:36:52.107Z,51.70
2017-10-05T03:39:20.391Z,51.70
2017-10-05T03:41:48.598Z,51.80
2017-10-05T03:44:16.782Z,51.70
2017-10-05T03:46:44.993Z,51.70
2017-10-05T03:49:13.940Z,51.70
2017-10-05T03:51:42.149Z,51.70
2017-10-05T03:54:11.132Z,51.70
2017-10-05T03:56:39.315Z,51.70
2017-10-05T03:59:08.271Z,51.70
2017-10-05T04:01:36.478Z,51.70
2017-10-05T04:04:05.230Z,51.70
2017-10-05T04:06:33.467Z,51.70
2017-10-05T04:09:01.649Z,51.70
2017-10-05T04:11:29.831Z,51.70
2017-10-05T04:13:58.050Z,51.70
2017-10-05T04:16:26.269Z,51.70
2017-10-05T04:18:54.473Z,51.70
2017-10-05T04:21:23.035Z,51.70
2017-10-05T04:23:51.203Z,51.70
2017-10-05T04:26:19.393Z,51.70
2017-10-05T04:28:47.572Z,51.80
2017-10-05T04:31:15.828Z,51.70
2017-10-05T04:33:44.386Z,51.70
2017-10-05T04:36:12.580Z,51.70
2017-10-05T04:38:40.798Z,51.70
2017-10-05T04:41:09.016Z,51.70
2017-10-05T04:43:37.291Z,51.80
2017-10-05T04:46:05.483Z,51.80
2017-10-05T04:48:33.774Z,51.80
2017-10-05T04:51:01.983Z,51.70
2017-10-05T04:53:30.203Z,51.70
2017-10-05T04:55:58.395Z,51.70
2017-10-05T04:58:26.632Z,51.70
2017-10-05T05:00:55.852Z,51.70
2017-10-05T05:03:24.113Z,51.70
2017-10-05T05:05:52.371Z,51.70
2017-10-05T05:08:20.561Z,51.80
2017-10-05T05:10:48.748Z,51.80
2017-10-05T05:13:16.942Z,51.70
2017-10-05T05:15:45.144Z,51.70
2017-10-05T05:18:13.330Z,51.70
2017-10-05T05:20:41.540Z,51.60
2017-10-05T05:23:09.778Z,51.50
2017-10-05T05:25:38.764Z,51.50
2017-10-05T05:28:07.742Z,51.40
2017-10-05T05:30:36.022Z,51.40
2017-10-05T05:33:05.025Z,51.40
2017-10-05T05:35:34.102Z,51.50
2017-10-05T05:38:03.169Z,51.40
2017-10-05T05:40:31.471Z,51.40
2017-10-05T05:43:00.466Z,51.30
2017-10-05T05:45:29.444Z,51.30
2017-10-05T05:47:57.633Z,51.30
2017-10-05T05:50:25.948Z,51.30
2017-10-05T05:52:54.147Z,51.40
2017-10-05T05:55:22.371Z,51.30
2017-10-05T05:57:51.511Z,51.30
2017-10-05T06:00:20.838Z,51.30
2017-10-05T06:02:49.834Z,51.20
2017-10-05T06:05:18.171Z,51.20
2017-10-05T06:07:46.428Z,51.20
2017-10-05T06:10:17.463Z,51.20
2017-10-05T06:12:45.728Z,51.20
2017-10-05T06:15:15.469Z,51.10
2017-10-05T06:17:44.774Z,51.10
2017-10-05T06:20:12.967Z,51.10
2017-10-05T06:22:41.166Z,51.20
2017-10-05T06:25:09.396Z,51.20
2017-10-05T06:27:37.634Z,51.20
2017-10-05T06:30:07.194Z,51.10
2017-10-05T06:32:35.428Z,51.10
2017-10-05T06:35:03.643Z,51.10
2017-10-05T06:37:31.864Z,51.20
2017-10-05T06:40:00.077Z,51.10
2017-10-05T06:42:28.298Z,51.10
2017-10-05T06:44:57.306Z,51.10
2017-10-05T06:47:25.579Z,51.10
2017-10-05T06:49:53.791Z,51.10
2017-10-05T06:52:22.382Z,51.00
2017-10-05T06:54:50.568Z,51.00
2017-10-05T06:57:18.772Z,51.00
2017-10-05T06:59:47.751Z,51.00
2017-10-05T07:02:15.951Z,51.00
2017-10-05T07:04:44.167Z,51.00
2017-10-05T07:07:12.410Z,51.00
2017-10-05T07:09:40.929Z,51.00
2017-10-05T07:12:09.110Z,51.00
2017-10-05T07:14:37.279Z,51.00
2017-10-05T07:17:05.484Z,51.00
2017-10-05T07:19:34.443Z,51.10
2017-10-05T07:22:03.035Z,51.00
2017-10-05T07:24:31.254Z,51.00
2017-10-05T07:26:59.447Z,51.10
2017-10-05T07:29:27.659Z,51.00
2017-10-05T07:31:55.900Z,51.00
2017-10-05T07:34:24.132Z,51.00
2017-10-05T07:36:53.127Z,51.10
2017-10-05T07:39:22.097Z,51.10
2017-10-05T07:41:50.315Z,51.10
2017-10-05T07:44:18.545Z,51.10
2017-10-05T07:46:47.591Z,51.10
2017-10-05T07:49:15.840Z,51.10
2017-10-05T07:51:44.854Z,51.10
2017-10-05T07:54:13.103Z,51.10
2017-10-05T07:56:41.334Z,51.10
2017-10-05T07:59:09.934Z,51.10
2017-10-05T08:01:38.152Z,51.10
2017-10-05T08:04:06.367Z,51.00
2017-10-05T08:06:34.613Z,51.00
2017-10-05T08:09:03.067Z,51.10
2017-10-05T08:11:31.479Z,51.10
2017-10-05T08:13:59.703Z,51.10
2017-10-05T08:16:28.663Z,51.20
2017-10-05T08:18:56.891Z,51.20
2017-10-05T08:21:25.164Z,51.10
2017-10-05T08:23:53.387Z,51.20
2017-10-05T08:26:21.611Z,51.20
2017-10-05T08:28:49.920Z,51.20
2017-10-05T08:31:18.215Z,51.30
2017-10-05T08:33:46.432Z,51.20
2017-10-05T08:36:15.591Z,51.30
2017-10-05T08:38:43.820Z,51.20
2017-10-05T08:41:12.654Z,51.20
2017-10-05T08:43:40.916Z,51.30
2017-10-05T08:46:09.191Z,51.30
2017-10-05T08:48:37.486Z,51.30
2017-10-05T08:51:05.863Z,51.40
2017-10-05T08:53:34.142Z,51.40
2017-10-05T08:56:02.327Z,51.30
2017-10-05T08:58:31.392Z,51.40
2017-10-05T09:00:59.686Z,51.30
2017-10-05T09:03:27.919Z,51.40
2017-10-05T09:05:56.727Z,51.40
2017-10-05T09:08:25.837Z,51.40
2017-10-05T09:10:54.122Z,51.50
2017-10-05T09:13:22.363Z,52.00
2017-10-05T09:15:50.647Z,51.50
2017-10-05T09:18:18.883Z,51.60
2017-10-05T09:20:48.040Z,51.60
2017-10-05T09:23:17.039Z,51.90
2017-10-05T09:25:45.240Z,51.60
2017-10-05T09:28:13.427Z,51.70
2017-10-05T09:30:41.655Z,51.80
2017-10-05T09:33:09.919Z,51.80
2017-10-05T09:35:38.144Z,51.90
2017-10-05T09:38:06.379Z,51.90
2017-10-05T09:40:35.638Z,52.00
2017-10-05T09:43:03.913Z,52.00
2017-10-05T09:45:32.804Z,52.00
2017-10-05T09:48:01.059Z,52.10
2017-10-05T09:50:29.288Z,52.10
2017-10-05T09:52:58.279Z,52.30
2017-10-05T09:58:00.853Z,52.20
2017-10-05T10:00:30.181Z,52.30
2017-10-05T10:02:58.452Z,52.40
2017-10-05T10:05:27.466Z,52.50
2017-10-05T10:07:56.439Z,52.50
2017-10-05T10:10:25.405Z,52.50
2017-10-05T10:12:53.677Z,52.50
2017-10-05T10:15:21.882Z,52.50
2017-10-05T10:17:51.668Z,52.70
2017-10-05T10:20:19.889Z,52.60
2017-10-05T10:22:49.240Z,52.70
2017-10-05T10:25:18.770Z,52.70
2017-10-05T10:27:47.020Z,52.80
2017-10-05T10:30:15.270Z,52.90
2017-10-05T10:32:43.521Z,53.00
2017-10-05T10:35:12.953Z,53.10
2017-10-05T10:37:41.183Z,53.10
2017-10-05T10:40:10.528Z,53.20
2017-10-05T10:42:38.750Z,53.20
2017-10-05T10:45:07.699Z,53.10
2017-10-05T10:47:37.440Z,53.20
2017-10-05T10:50:05.672Z,53.30
2017-10-05T10:52:34.381Z,53.30
2017-10-05T10:55:02.717Z,53.30
2017-10-05T10:57:31.020Z,53.40
2017-10-05T10:59:59.224Z,53.40
2017-10-05T11:02:27.531Z,53.50
2017-10-05T11:04:55.851Z,53.50
2017-10-05T11:07:24.248Z,53.40
2017-10-05T11:09:53.274Z,53.50
2017-10-05T11:12:21.612Z,53.50
2017-10-05T11:14:49.834Z,53.60
2017-10-05T11:17:18.078Z,53.70
2017-10-05T11:19:47.088Z,53.80
2017-10-05T11:22:15.309Z,53.80
2017-10-05T11:24:43.560Z,53.80
2017-10-05T11:27:11.932Z,54.00
2017-10-05T11:29:40.197Z,54.10
2017-10-05T11:32:08.455Z,54.00
2017-10-05T11:34:36.764Z,54.00
2017-10-05T11:37:05.371Z,54.10
2017-10-05T11:39:33.641Z,53.50
2017-10-05T11:42:02.000Z,53.10
2017-10-05T11:44:30.188Z,53.10
2017-10-05T11:46:59.361Z,52.50
2017-10-05T11:49:27.542Z,52.00
2017-10-05T11:51:55.869Z,52.10
2017-10-05T11:54:24.163Z,51.20
2017-10-05T11:56:53.135Z,50.90
2017-10-05T11:59:21.382Z,50.90
2017-10-05T12:01:49.568Z,51.00
2017-10-05T12:04:17.811Z,50.90
2017-10-05T12:06:46.891Z,50.30
2017-10-05T12:09:15.115Z,51.30
2017-10-05T12:11:43.298Z,50.10
2017-10-05T12:14:11.610Z,49.90
2017-10-05T12:16:39.807Z,49.80
2017-10-05T12:19:08.080Z,49.60
2017-10-05T12:21:36.369Z,49.20
2017-10-05T12:24:04.570Z,49.30
2017-10-05T12:26:32.830Z,49.20
2017-10-05T12:29:01.063Z,48.80
2017-10-05T12:31:29.328Z,48.20
2017-10-05T12:33:59.993Z,47.70
2017-10-05T12:36:28.335Z,47.70
2017-10-05T12:38:56.567Z,47.60
2017-10-05T12:41:24.784Z,46.10
2017-10-05T12:43:53.017Z,46.40
2017-10-05T12:46:21.191Z,46.90
2017-10-05T12:48:50.700Z,47.10
2017-10-05T12:51:18.988Z,47.20
2017-10-05T12:53:47.202Z,47.30
2017-10-05T12:56:15.830Z,47.00
2017-10-05T12:58:44.152Z,47.20
2017-10-05T13:01:12.516Z,46.80
2017-10-05T13:03:40.752Z,46.80
2017-10-05T13:06:09.000Z,46.40
2017-10-05T13:08:43.917Z,46.60
2017-10-05T13:11:12.322Z,46.80
2017-10-05T13:13:40.691Z,47.10
2017-10-05T13:16:09.117Z,46.90
2017-10-05T13:18:37.488Z,46.90
2017-10-05T13:21:05.713Z,46.80
2017-10-05T13:23:33.944Z,47.10
2017-10-05T13:26:02.240Z,47.30
2017-10-05T13:28:30.478Z,47.10
2017-10-05T13:30:58.794Z,47.30
2017-10-05T13:33:27.079Z,47.30
2017-10-05T13:35:55.475Z,47.10
2017-10-05T13:38:23.735Z,47.00
2017-10-05T13:40:52.164Z,47.00
2017-10-05T13:43:20.507Z,47.40
2017-10-05T13:45:49.642Z,47.30
2017-10-05T14:01:55.208Z,47.60
2017-10-05T14:04:23.577Z,47.60
2017-10-05T14:06:51.933Z,47.40
2017-10-05T14:09:20.201Z,47.40
2017-10-05T14:11:48.573Z,47.50
2017-10-05T14:14:17.337Z,47.50
2017-10-05T14:16:45.698Z,47.30
2017-10-05T14:19:13.990Z,47.20
2017-10-05T14:21:42.984Z,47.50
2017-10-05T14:24:11.272Z,47.40
2017-10-05T14:26:39.880Z,47.40
2017-10-05T14:29:08.896Z,47.50
2017-10-05T14:31:37.509Z,47.50
2017-10-05T14:34:06.650Z,48.00
2017-10-05T14:36:34.981Z,47.50
2017-10-05T14:39:03.307Z,47.50
2017-10-05T14:41:32.308Z,47.50
2017-10-05T14:44:01.384Z,47.30
2017-10-05T14:46:29.727Z,47.30
2017-10-05T14:48:59.375Z,47.50
2017-10-05T14:51:29.561Z,47.50
2017-10-05T14:53:57.847Z,47.40
2017-10-05T14:56:26.448Z,47.30
2017-10-05T14:58:55.732Z,47.30
2017-10-05T15:01:26.435Z,47.40
2017-10-05T15:03:54.739Z,47.40
2017-10-05T15:06:23.065Z,47.50
2017-10-05T15:08:51.373Z,47.50
2017-10-05T15:11:19.816Z,47.40
2017-10-05T15:13:48.091Z,47.40
2017-10-05T15:16:16.448Z,47.30
2017-10-05T15:18:45.519Z,47.40
2017-10-05T15:21:14.386Z,47.30
2017-10-05T15:23:43.389Z,47.50
2017-10-05T15:26:13.248Z,47.50
2017-10-05T15:28:42.616Z,47.40
2017-10-05T15:31:10.849Z,47.40
2017-10-05T15:33:39.102Z,47.50
2017-10-05T15:36:08.695Z,47.60
2017-10-05T15:38:38.046Z,47.70
2017-10-05T15:41:06.243Z,47.60
2017-10-05T15:43:34.616Z,47.70
2017-10-05T15:46:02.803Z,47.90
2017-10-05T15:48:31.008Z,48.00
2017-10-05T15:51:00.461Z,48.00
2017-10-05T15:53:28.742Z,48.10
2017-10-05T15:55:57.851Z,48.30
2017-10-05T15:58:26.182Z,48.30
2017-10-05T16:00:54.447Z,48.30
2017-10-05T16:03:23.453Z,48.40
2017-10-05T16:05:52.444Z,48.40
2017-10-05T16:08:20.740Z,48.50
2017-10-05T16:10:48.962Z,48.50
2017-10-05T16:13:18.004Z,48.60
2017-10-05T16:15:46.285Z,48.50
2017-10-05T16:18:14.512Z,48.50
2017-10-05T16:20:42.743Z,48.60
2017-10-05T16:23:11.030Z,48.70
2017-10-05T16:25:39.333Z,48.70
2017-10-05T16:28:07.530Z,48.70
2017-10-05T16:30:37.223Z,48.60
2017-10-05T16:33:05.489Z,48.60
2017-10-05T16:35:33.832Z,48.50
2017-10-05T16:38:02.043Z,48.50
2017-10-05T16:40:30.341Z,48.60
2017-10-05T16:43:00.489Z,48.50
2017-10-05T16:45:28.919Z,48.50
2017-10-05T16:47:57.281Z,48.60
2017-10-05T16:50:25.555Z,48.50
2017-10-05T16:52:53.921Z,48.40
2017-10-05T16:55:23.051Z,48.50
2017-10-05T16:57:52.967Z,48.50
2017-10-05T17:00:23.007Z,48.40
2017-10-05T17:02:52.022Z,48.40
2017-10-05T17:05:20.291Z,48.40
2017-10-05T17:07:48.734Z,48.50
2017-10-05T17:10:18.561Z,48.50
2017-10-05T17:12:46.799Z,48.40
2017-10-05T17:15:14.994Z,48.40
2017-10-05T17:17:44.672Z,48.40
2017-10-05T17:20:13.151Z,48.30
2017-10-05T17:22:41.411Z,48.40
2017-10-05T17:25:09.686Z,48.30
2017-10-05T17:27:37.998Z,48.30
2017-10-05T17:30:10.356Z,48.30
2017-10-05T17:32:38.559Z,48.30
2017-10-05T17:35:07.931Z,48.50
2017-10-05T17:37:36.140Z,48.50
2017-10-05T17:40:06.036Z,48.50
2017-10-05T17:42:35.365Z,48.60
2017-10-05T17:45:03.600Z,48.50
2017-10-05T17:47:31.820Z,48.50
2017-10-05T17:50:00.818Z,48.50
2017-10-05T17:52:29.393Z,48.40
2017-10-05T17:54:57.646Z,48.40
2017-10-05T17:57:26.884Z,48.40
2017-10-05T17:59:56.801Z,48.40
2017-10-05T18:02:26.168Z,48.40
2017-10-05T18:04:55.435Z,48.40
2017-10-05T18:07:23.804Z,48.30
2017-10-05T18:09:53.330Z,48.30
2017-10-05T18:12:22.379Z,48.30
2017-10-05T18:14:50.655Z,48.90
2017-10-05T18:17:19.046Z,48.30
2017-10-05T18:19:47.304Z,48.30
2017-10-05T18:22:15.562Z,48.20
2017-10-05T18:24:43.799Z,48.10
2017-10-05T18:27:13.600Z,48.20
2017-10-05T18:29:42.665Z,48.20
2017-10-05T18:32:11.664Z,48.20
2017-10-05T18:34:40.625Z,48.30
2017-10-05T18:37:08.851Z,48.30
2017-10-05T18:39:37.892Z,48.30
2017-10-05T18:42:06.163Z,48.30
2017-10-05T18:44:34.392Z,48.30
2017-10-05T18:47:02.655Z,48.40
2017-10-05T18:49:31.089Z,48.40
2017-10-05T18:51:59.307Z,48.30
2017-10-05T18:54:27.675Z,48.30
2017-10-05T18:56:56.992Z,48.30
2017-10-05T18:59:25.432Z,48.30
2017-10-05T19:01:53.707Z,48.40
2017-10-05T19:04:21.992Z,48.30
2017-10-05T19:06:50.233Z,48.40
2017-10-05T19:09:18.479Z,48.40
2017-10-05T19:11:47.839Z,49.00
2017-10-05T19:14:16.087Z,48.40
2017-10-05T19:16:44.326Z,48.40
2017-10-05T19:19:16.385Z,48.40
2017-10-05T19:21:44.656Z,48.40
2017-10-05T19:24:13.742Z,48.70
2017-10-05T19:26:41.998Z,48.40
2017-10-05T19:29:10.269Z,48.30
2017-10-05T19:31:38.547Z,48.30
2017-10-05T19:34:06.800Z,48.40
2017-10-05T19:36:35.096Z,48.30
2017-10-05T19:39:03.387Z,48.40
2017-10-05T19:41:31.704Z,48.40
2017-10-05T19:44:00.792Z,48.30
2017-10-05T19:46:29.796Z,48.20
2017-10-05T19:48:58.790Z,48.30
2017-10-05T19:51:28.082Z,48.30
2017-10-05T19:53:57.079Z,48.30
2017-10-05T19:56:26.544Z,48.20
2017-10-05T19:58:55.711Z,48.20
2017-10-05T20:01:24.023Z,48.20
2017-10-05T20:03:52.230Z,48.20
2017-10-05T20:06:21.255Z,48.20
2017-10-05T20:08:56.001Z,48.20
2017-10-05T20:11:24.631Z,48.20
2017-10-05T20:17:04.268Z,48.20
2017-10-05T20:19:39.039Z,48.30
2017-10-05T20:25:24.166Z,48.20
2017-10-05T20:27:58.233Z,48.90
2017-10-05T20:30:26.938Z,48.50
2017-10-05T20:32:55.166Z,48.50
2017-10-05T20:35:23.451Z,48.60
2017-10-05T20:37:52.484Z,48.50
2017-10-05T20:40:20.760Z,48.50
2017-10-05T20:42:49.001Z,48.50
2017-10-05T20:45:17.376Z,48.50
2017-10-05T20:47:45.670Z,48.50
2017-10-05T20:50:13.934Z,49.10
2017-10-05T20:52:42.385Z,48.50
2017-10-05T20:55:10.660Z,48.50
2017-10-05T20:57:38.957Z,48.50
2017-10-05T21:00:07.193Z,48.40
2017-10-05T21:02:35.476Z,48.30
2017-10-05T21:05:03.739Z,48.40
2017-10-05T21:07:32.230Z,48.40
2017-10-05T21:10:00.476Z,48.40
2017-10-05T21:12:28.719Z,48.50
2017-10-05T21:14:57.732Z,48.50
2017-10-05T21:17:26.047Z,48.60
2017-10-05T21:19:54.375Z,48.70
2017-10-05T21:22:22.607Z,48.80
2017-10-05T21:24:51.604Z,49.40
2017-10-05T21:27:21.591Z,49.00
2017-10-05T21:29:49.893Z,49.00
2017-10-05T21:32:18.193Z,49.10
2017-10-05T21:34:46.528Z,49.10
2017-10-05T21:37:14.868Z,49.20
2017-10-05T21:39:43.165Z,49.30
2017-10-05T21:42:11.408Z,49.40
2017-10-05T21:44:39.665Z,49.30
2017-10-05T21:47:07.938Z,49.30
2017-10-05T21:49:36.237Z,49.40
2017-10-05T21:52:04.610Z,49.40
2017-10-05T21:54:33.269Z,49.40
2017-10-05T21:57:01.548Z,49.40
2017-10-05T21:59:29.913Z,49.30
2017-10-05T22:01:58.273Z,49.40
2017-10-05T22:04:26.562Z,49.40
2017-10-05T22:06:54.843Z,49.30
2017-10-05T22:09:23.953Z,49.10
2017-10-05T22:11:52.188Z,49.10
2017-10-05T22:14:24.434Z,49.20
2017-10-05T22:16:52.779Z,49.20
2017-10-05T22:19:21.110Z,49.20
2017-10-05T22:21:49.566Z,49.20
2017-10-05T22:24:17.941Z,49.20
2017-10-05T22:26:46.222Z,49.20
2017-10-05T22:29:14.674Z,49.20
2017-10-05T22:31:43.021Z,49.30
2017-10-05T22:34:11.382Z,49.40
2017-10-05T22:36:39.658Z,49.40
2017-10-05T22:39:08.745Z,49.60
2017-10-05T22:41:37.032Z,49.50
2017-10-05T22:44:05.304Z,49.50
2017-10-05T22:46:33.558Z,49.60
2017-10-05T22:49:01.822Z,49.50
2017-10-05T22:51:30.406Z,49.50
2017-10-05T22:53:59.099Z,49.60
2017-10-05T22:56:27.393Z,49.70
2017-10-05T22:58:55.700Z,49.60
2017-10-05T23:01:24.761Z,49.70
2017-10-05T23:03:53.093Z,49.60
2017-10-05T23:06:21.384Z,49.70
2017-10-05T23:08:49.703Z,49.60
2017-10-05T23:11:19.333Z,49.80
2017-10-05T23:13:47.632Z,49.60
2017-10-05T23:16:15.900Z,49.70
2017-10-05T23:18:44.202Z,49.70
2017-10-05T23:21:12.490Z,49.70
2017-10-05T23:23:40.738Z,49.80
2017-10-05T23:26:09.089Z,49.70
2017-10-05T23:28:37.464Z,49.70
2017-10-05T23:31:05.807Z,49.70
2017-10-05T23:33:34.067Z,49.80
2017-10-05T23:36:02.339Z,49.80
2017-10-05T23:38:30.625Z,49.80
2017-10-05T23:40:58.951Z,49.80
2017-10-05T23:43:27.214Z,49.90
2017-10-05T23:45:55.468Z,49.80
2017-10-05T23:48:23.714Z,49.90
2017-10-05T23:50:52.047Z,49.90
2017-10-05T23:53:20.379Z,49.80
2017-10-05T23:55:48.782Z,49.90
2017-10-05T23:58:17.113Z,49.80
